sensor_id;sensor_type;location;lat;lon;timestamp;P1;durP1;ratioP1;P2;durP2;ratioP2
74821;SDS011;63353;48.702;8.884;2023-06-22T00:00:31;25.93;;;23.70;;
74821;SDS011;63353;48.702;8.884;2023-06-22T00:02:57;25.73;;;23.43;;
74821;SDS011;63353;48.702;8.884;2023-06-22T00:05:23;29.03;;;26.63;;
74821;SDS011;63353;48.702;8.884;2023-06-22T00:07:52;25.13;;;23.13;;
74821;SDS011;63353;48.702;8.884;2023-06-22T00:10:17;25.60;;;23.50;;
74821;SDS011;63353;48.702;8.884;2023-06-22T00:12:49;23.47;;;21.37;;
74821;SDS011;63353;48.702;8.884;2023-06-22T00:15:14;26.07;;;24.07;;
74821;SDS011;63353;48.702;8.884;2023-06-22T00:17:40;26.43;;;24.30;;
74821;SDS011;63353;48.702;8.884;2023-06-22T00:20:07;28.20;;;25.93;;
74821;SDS011;63353;48.702;8.884;2023-06-22T00:22:34;25.73;;;23.70;;
74821;SDS011;63353;48.702;8.884;2023-06-22T00:25:06;28.67;;;26.50;;
74821;SDS011;63353;48.702;8.884;2023-06-22T00:27:36;26.47;;;24.23;;
74821;SDS011;63353;48.702;8.884;2023-06-22T00:30:02;30.03;;;27.77;;
74821;SDS011;63353;48.702;8.884;2023-06-22T00:32:28;33.03;;;30.63;;
74821;SDS011;63353;48.702;8.884;2023-06-22T00:34:54;33.80;;;31.57;;
74821;SDS011;63353;48.702;8.884;2023-06-22T00:37:29;34.73;;;32.13;;
74821;SDS011;63353;48.702;8.884;2023-06-22T00:39:57;34.20;;;31.37;;
74821;SDS011;63353;48.702;8.884;2023-06-22T00:42:24;30.17;;;27.63;;
74821;SDS011;63353;48.702;8.884;2023-06-22T00:44:58;34.00;;;31.50;;
74821;SDS011;63353;48.702;8.884;2023-06-22T00:47:24;30.60;;;28.07;;
74821;SDS011;63353;48.702;8.884;2023-06-22T00:49:52;32.33;;;29.73;;
74821;SDS011;63353;48.702;8.884;2023-06-22T00:52:19;32.03;;;29.27;;
74821;SDS011;63353;48.702;8.884;2023-06-22T00:54:52;28.80;;;26.40;;
74821;SDS011;63353;48.702;8.884;2023-06-22T00:57:24;29.47;;;26.47;;
74821;SDS011;63353;48.702;8.884;2023-06-22T00:59:53;30.43;;;27.67;;
74821;SDS011;63353;48.702;8.884;2023-06-22T01:02:25;25.63;;;23.27;;
74821;SDS011;63353;48.702;8.884;2023-06-22T01:04:51;24.37;;;21.27;;
74821;SDS011;63353;48.702;8.884;2023-06-22T01:07:34;23.00;;;20.30;;
74821;SDS011;63353;48.702;8.884;2023-06-22T01:10:04;22.00;;;19.67;;
74821;SDS011;63353;48.702;8.884;2023-06-22T01:12:38;21.33;;;19.27;;
74821;SDS011;63353;48.702;8.884;2023-06-22T01:15:22;23.57;;;21.37;;
74821;SDS011;63353;48.702;8.884;2023-06-22T01:20:38;21.10;;;19.20;;
74821;SDS011;63353;48.702;8.884;2023-06-22T01:23:07;21.47;;;19.27;;
74821;SDS011;63353;48.702;8.884;2023-06-22T01:25:57;23.03;;;20.83;;
74821;SDS011;63353;48.702;8.884;2023-06-22T01:28:45;22.60;;;20.50;;
74821;SDS011;63353;48.702;8.884;2023-06-22T01:31:15;22.30;;;19.73;;
74821;SDS011;63353;48.702;8.884;2023-06-22T01:33:47;22.50;;;20.20;;
74821;SDS011;63353;48.702;8.884;2023-06-22T01:36:18;23.43;;;20.93;;
74821;SDS011;63353;48.702;8.884;2023-06-22T01:38:48;20.50;;;18.40;;
74821;SDS011;63353;48.702;8.884;2023-06-22T01:41:19;21.97;;;19.57;;
74821;SDS011;63353;48.702;8.884;2023-06-22T01:43:46;21.70;;;19.60;;
74821;SDS011;63353;48.702;8.884;2023-06-22T01:46:16;21.10;;;19.00;;
74821;SDS011;63353;48.702;8.884;2023-06-22T01:48:50;21.53;;;19.53;;
74821;SDS011;63353;48.702;8.884;2023-06-22T01:51:16;21.83;;;19.73;;
74821;SDS011;63353;48.702;8.884;2023-06-22T01:53:42;22.27;;;19.63;;
74821;SDS011;63353;48.702;8.884;2023-06-22T01:56:10;21.30;;;19.13;;
74821;SDS011;63353;48.702;8.884;2023-06-22T01:58:38;25.43;;;22.73;;
74821;SDS011;63353;48.702;8.884;2023-06-22T02:01:11;23.37;;;20.17;;
74821;SDS011;63353;48.702;8.884;2023-06-22T02:03:47;24.17;;;22.07;;
74821;SDS011;63353;48.702;8.884;2023-06-22T02:06:31;24.57;;;21.87;;
74821;SDS011;63353;48.702;8.884;2023-06-22T02:09:03;22.67;;;20.53;;
74821;SDS011;63353;48.702;8.884;2023-06-22T02:11:35;22.93;;;20.80;;
74821;SDS011;63353;48.702;8.884;2023-06-22T02:14:02;23.90;;;21.40;;
74821;SDS011;63353;48.702;8.884;2023-06-22T02:16:30;22.60;;;20.37;;
74821;SDS011;63353;48.702;8.884;2023-06-22T02:19:00;24.33;;;21.00;;
74821;SDS011;63353;48.702;8.884;2023-06-22T02:21:47;26.07;;;22.00;;
74821;SDS011;63353;48.702;8.884;2023-06-22T02:24:13;23.50;;;20.93;;
74821;SDS011;63353;48.702;8.884;2023-06-22T02:26:48;23.37;;;20.83;;
74821;SDS011;63353;48.702;8.884;2023-06-22T02:29:20;22.03;;;19.67;;
74821;SDS011;63353;48.702;8.884;2023-06-22T02:31:46;25.30;;;19.90;;
74821;SDS011;63353;48.702;8.884;2023-06-22T02:34:21;22.27;;;20.07;;
74821;SDS011;63353;48.702;8.884;2023-06-22T02:36:47;25.07;;;20.90;;
74821;SDS011;63353;48.702;8.884;2023-06-22T02:39:33;25.47;;;22.77;;
74821;SDS011;63353;48.702;8.884;2023-06-22T02:41:58;27.03;;;24.43;;
74821;SDS011;63353;48.702;8.884;2023-06-22T02:44:27;26.20;;;23.60;;
74821;SDS011;63353;48.702;8.884;2023-06-22T02:46:52;26.13;;;23.40;;
74821;SDS011;63353;48.702;8.884;2023-06-22T02:49:24;22.90;;;20.57;;
74821;SDS011;63353;48.702;8.884;2023-06-22T02:51:57;24.77;;;22.37;;
74821;SDS011;63353;48.702;8.884;2023-06-22T02:54:25;24.80;;;22.27;;
74821;SDS011;63353;48.702;8.884;2023-06-22T02:56:54;25.43;;;22.77;;
74821;SDS011;63353;48.702;8.884;2023-06-22T02:59:20;25.73;;;22.83;;
74821;SDS011;63353;48.702;8.884;2023-06-22T03:01:51;26.77;;;22.07;;
74821;SDS011;63353;48.702;8.884;2023-06-22T03:04:24;27.73;;;23.03;;
74821;SDS011;63353;48.702;8.884;2023-06-22T03:06:50;24.60;;;22.00;;
74821;SDS011;63353;48.702;8.884;2023-06-22T03:09:18;25.10;;;22.23;;
74821;SDS011;63353;48.702;8.884;2023-06-22T03:11:47;25.30;;;22.90;;
74821;SDS011;63353;48.702;8.884;2023-06-22T03:14:12;23.90;;;21.27;;
74821;SDS011;63353;48.702;8.884;2023-06-22T03:16:38;26.27;;;19.73;;
74821;SDS011;63353;48.702;8.884;2023-06-22T03:19:05;23.47;;;20.63;;
74821;SDS011;63353;48.702;8.884;2023-06-22T03:21:31;23.30;;;19.63;;
74821;SDS011;63353;48.702;8.884;2023-06-22T03:24:06;26.07;;;23.40;;
74821;SDS011;63353;48.702;8.884;2023-06-22T03:26:32;27.40;;;24.73;;
74821;SDS011;63353;48.702;8.884;2023-06-22T03:29:02;27.27;;;24.60;;
74821;SDS011;63353;48.702;8.884;2023-06-22T03:31:28;29.97;;;27.23;;
74821;SDS011;63353;48.702;8.884;2023-06-22T03:33:59;31.17;;;28.37;;
74821;SDS011;63353;48.702;8.884;2023-06-22T03:36:25;32.27;;;29.27;;
74821;SDS011;63353;48.702;8.884;2023-06-22T03:39:03;35.13;;;31.93;;
74821;SDS011;63353;48.702;8.884;2023-06-22T03:41:28;35.77;;;32.53;;
74821;SDS011;63353;48.702;8.884;2023-06-22T03:43:54;30.00;;;27.23;;
74821;SDS011;63353;48.702;8.884;2023-06-22T03:46:20;31.80;;;29.20;;
74821;SDS011;63353;48.702;8.884;2023-06-22T03:48:45;28.93;;;26.53;;
74821;SDS011;63353;48.702;8.884;2023-06-22T03:51:11;30.97;;;27.77;;
74821;SDS011;63353;48.702;8.884;2023-06-22T03:53:37;34.27;;;31.23;;
74821;SDS011;63353;48.702;8.884;2023-06-22T03:56:02;38.47;;;34.97;;
74821;SDS011;63353;48.702;8.884;2023-06-22T03:58:28;30.00;;;27.13;;
74821;SDS011;63353;48.702;8.884;2023-06-22T04:00:57;31.50;;;28.40;;
74821;SDS011;63353;48.702;8.884;2023-06-22T04:03:25;28.93;;;26.10;;
74821;SDS011;63353;48.702;8.884;2023-06-22T04:05:50;29.80;;;27.10;;
74821;SDS011;63353;48.702;8.884;2023-06-22T04:08:16;33.67;;;30.73;;
74821;SDS011;63353;48.702;8.884;2023-06-22T04:10:43;32.93;;;29.97;;
74821;SDS011;63353;48.702;8.884;2023-06-22T04:13:08;29.93;;;26.97;;
74821;SDS011;63353;48.702;8.884;2023-06-22T04:15:34;29.40;;;26.40;;
74821;SDS011;63353;48.702;8.884;2023-06-22T04:18:00;31.93;;;28.63;;
74821;SDS011;63353;48.702;8.884;2023-06-22T04:20:25;31.57;;;28.47;;
74821;SDS011;63353;48.702;8.884;2023-06-22T04:22:52;30.20;;;27.30;;
74821;SDS011;63353;48.702;8.884;2023-06-22T04:25:21;32.83;;;29.90;;
74821;SDS011;63353;48.702;8.884;2023-06-22T04:27:47;34.23;;;31.03;;
74821;SDS011;63353;48.702;8.884;2023-06-22T04:30:16;33.03;;;30.30;;
74821;SDS011;63353;48.702;8.884;2023-06-22T04:32:44;37.37;;;34.03;;
74821;SDS011;63353;48.702;8.884;2023-06-22T04:35:10;37.23;;;33.70;;
74821;SDS011;63353;48.702;8.884;2023-06-22T04:37:39;40.63;;;37.53;;
74821;SDS011;63353;48.702;8.884;2023-06-22T04:40:05;34.10;;;30.43;;
74821;SDS011;63353;48.702;8.884;2023-06-22T04:42:33;35.10;;;31.87;;
74821;SDS011;63353;48.702;8.884;2023-06-22T04:45:00;37.43;;;34.43;;
74821;SDS011;63353;48.702;8.884;2023-06-22T04:47:26;36.50;;;33.43;;
74821;SDS011;63353;48.702;8.884;2023-06-22T04:49:52;35.37;;;32.33;;
74821;SDS011;63353;48.702;8.884;2023-06-22T04:52:17;32.70;;;29.97;;
74821;SDS011;63353;48.702;8.884;2023-06-22T04:54:45;33.93;;;31.13;;
74821;SDS011;63353;48.702;8.884;2023-06-22T04:57:20;33.53;;;30.67;;
74821;SDS011;63353;48.702;8.884;2023-06-22T04:59:58;34.27;;;31.27;;
74821;SDS011;63353;48.702;8.884;2023-06-22T05:02:41;30.47;;;27.83;;
74821;SDS011;63353;48.702;8.884;2023-06-22T05:05:07;31.03;;;28.30;;
74821;SDS011;63353;48.702;8.884;2023-06-22T05:07:33;30.57;;;27.97;;
74821;SDS011;63353;48.702;8.884;2023-06-22T05:10:00;29.33;;;26.63;;
74821;SDS011;63353;48.702;8.884;2023-06-22T05:12:30;28.03;;;25.43;;
74821;SDS011;63353;48.702;8.884;2023-06-22T05:14:56;26.40;;;23.90;;
74821;SDS011;63353;48.702;8.884;2023-06-22T05:17:22;27.47;;;24.77;;
74821;SDS011;63353;48.702;8.884;2023-06-22T05:19:48;27.03;;;24.43;;
74821;SDS011;63353;48.702;8.884;2023-06-22T05:22:16;22.80;;;20.53;;
74821;SDS011;63353;48.702;8.884;2023-06-22T05:24:42;21.07;;;18.97;;
74821;SDS011;63353;48.702;8.884;2023-06-22T05:27:08;20.70;;;18.57;;
74821;SDS011;63353;48.702;8.884;2023-06-22T05:29:35;20.07;;;18.13;;
74821;SDS011;63353;48.702;8.884;2023-06-22T05:32:02;18.40;;;16.70;;
74821;SDS011;63353;48.702;8.884;2023-06-22T05:34:28;19.53;;;17.47;;
74821;SDS011;63353;48.702;8.884;2023-06-22T05:36:54;17.87;;;16.00;;
74821;SDS011;63353;48.702;8.884;2023-06-22T05:39:19;18.10;;;16.40;;
74821;SDS011;63353;48.702;8.884;2023-06-22T05:41:46;18.20;;;16.33;;
74821;SDS011;63353;48.702;8.884;2023-06-22T05:44:11;17.43;;;15.70;;
74821;SDS011;63353;48.702;8.884;2023-06-22T05:46:40;17.93;;;16.00;;
74821;SDS011;63353;48.702;8.884;2023-06-22T05:49:12;19.87;;;16.20;;
74821;SDS011;63353;48.702;8.884;2023-06-22T05:51:38;18.20;;;16.27;;
74821;SDS011;63353;48.702;8.884;2023-06-22T05:54:04;18.63;;;16.57;;
74821;SDS011;63353;48.702;8.884;2023-06-22T05:56:29;18.27;;;16.47;;
74821;SDS011;63353;48.702;8.884;2023-06-22T05:58:55;17.33;;;15.53;;
74821;SDS011;63353;48.702;8.884;2023-06-22T06:01:21;17.93;;;16.23;;
74821;SDS011;63353;48.702;8.884;2023-06-22T06:03:47;16.83;;;15.23;;
74821;SDS011;63353;48.702;8.884;2023-06-22T06:06:14;17.03;;;15.33;;
74821;SDS011;63353;48.702;8.884;2023-06-22T06:08:40;17.77;;;16.07;;
74821;SDS011;63353;48.702;8.884;2023-06-22T06:11:06;18.30;;;16.40;;
74821;SDS011;63353;48.702;8.884;2023-06-22T06:13:32;17.53;;;15.73;;
74821;SDS011;63353;48.702;8.884;2023-06-22T06:15:57;18.50;;;16.70;;
74821;SDS011;63353;48.702;8.884;2023-06-22T06:18:24;18.17;;;16.47;;
74821;SDS011;63353;48.702;8.884;2023-06-22T06:20:50;16.53;;;14.77;;
74821;SDS011;63353;48.702;8.884;2023-06-22T06:23:15;15.23;;;13.80;;
74821;SDS011;63353;48.702;8.884;2023-06-22T06:25:41;16.97;;;15.47;;
74821;SDS011;63353;48.702;8.884;2023-06-22T06:28:07;17.67;;;16.13;;
74821;SDS011;63353;48.702;8.884;2023-06-22T06:30:33;15.97;;;14.47;;
74821;SDS011;63353;48.702;8.884;2023-06-22T06:32:59;16.60;;;14.90;;
74821;SDS011;63353;48.702;8.884;2023-06-22T06:35:25;17.93;;;13.83;;
74821;SDS011;63353;48.702;8.884;2023-06-22T06:37:51;15.10;;;13.50;;
74821;SDS011;63353;48.702;8.884;2023-06-22T06:40:17;14.47;;;13.07;;
74821;SDS011;63353;48.702;8.884;2023-06-22T06:42:44;14.83;;;13.37;;
74821;SDS011;63353;48.702;8.884;2023-06-22T06:47:44;13.70;;;12.50;;
74821;SDS011;63353;48.702;8.884;2023-06-22T06:50:10;14.03;;;12.67;;
74821;SDS011;63353;48.702;8.884;2023-06-22T06:52:36;14.87;;;13.27;;
74821;SDS011;63353;48.702;8.884;2023-06-22T06:55:02;13.43;;;12.10;;
74821;SDS011;63353;48.702;8.884;2023-06-22T06:57:35;12.93;;;11.67;;
74821;SDS011;63353;48.702;8.884;2023-06-22T07:02:54;11.87;;;10.87;;
74821;SDS011;63353;48.702;8.884;2023-06-22T07:05:26;12.57;;;11.57;;
74821;SDS011;63353;48.702;8.884;2023-06-22T07:08:00;11.87;;;10.67;;
74821;SDS011;63353;48.702;8.884;2023-06-22T07:10:29;12.73;;;11.70;;
74821;SDS011;63353;48.702;8.884;2023-06-22T07:13:01;12.77;;;11.43;;
74821;SDS011;63353;48.702;8.884;2023-06-22T07:15:36;11.70;;;10.70;;
74821;SDS011;63353;48.702;8.884;2023-06-22T07:18:01;12.67;;;11.30;;
74821;SDS011;63353;48.702;8.884;2023-06-22T07:20:27;13.13;;;11.93;;
74821;SDS011;63353;48.702;8.884;2023-06-22T07:22:53;12.60;;;11.60;;
74821;SDS011;63353;48.702;8.884;2023-06-22T07:25:18;13.33;;;12.10;;
74821;SDS011;63353;48.702;8.884;2023-06-22T07:27:45;13.60;;;12.50;;
74821;SDS011;63353;48.702;8.884;2023-06-22T07:30:23;13.00;;;12.00;;
74821;SDS011;63353;48.702;8.884;2023-06-22T07:32:49;13.57;;;12.27;;
74821;SDS011;63353;48.702;8.884;2023-06-22T07:35:15;16.27;;;14.88;;
74821;SDS011;63353;48.702;8.884;2023-06-22T07:37:42;14.45;;;13.38;;
74821;SDS011;63353;48.702;8.884;2023-06-22T07:40:14;16.52;;;15.32;;
74821;SDS011;63353;48.702;8.884;2023-06-22T07:42:42;18.92;;;17.73;;
74821;SDS011;63353;48.702;8.884;2023-06-22T07:45:09;21.80;;;20.10;;
74821;SDS011;63353;48.702;8.884;2023-06-22T07:47:43;21.35;;;19.98;;
74821;SDS011;63353;48.702;8.884;2023-06-22T07:50:09;20.98;;;19.40;;
74821;SDS011;63353;48.702;8.884;2023-06-22T07:52:38;19.73;;;18.40;;
74821;SDS011;63353;48.702;8.884;2023-06-22T07:55:07;21.40;;;19.92;;
74821;SDS011;63353;48.702;8.884;2023-06-22T07:57:33;17.17;;;15.82;;
74821;SDS011;63353;48.702;8.884;2023-06-22T08:00:00;18.83;;;17.45;;
74821;SDS011;63353;48.702;8.884;2023-06-22T08:02:39;19.50;;;18.10;;
74821;SDS011;63353;48.702;8.884;2023-06-22T08:05:09;15.75;;;14.35;;
74821;SDS011;63353;48.702;8.884;2023-06-22T08:07:35;14.20;;;12.80;;
74821;SDS011;63353;48.702;8.884;2023-06-22T08:10:05;15.48;;;13.98;;
74821;SDS011;63353;48.702;8.884;2023-06-22T08:12:31;15.48;;;13.98;;
74821;SDS011;63353;48.702;8.884;2023-06-22T08:15:04;14.55;;;13.05;;
74821;SDS011;63353;48.702;8.884;2023-06-22T08:17:30;14.85;;;13.50;;
74821;SDS011;63353;48.702;8.884;2023-06-22T08:19:59;17.77;;;16.48;;
74821;SDS011;63353;48.702;8.884;2023-06-22T08:22:24;21.00;;;19.60;;
74821;SDS011;63353;48.702;8.884;2023-06-22T08:24:50;17.08;;;15.73;;
74821;SDS011;63353;48.702;8.884;2023-06-22T08:27:16;19.20;;;17.90;;
74821;SDS011;63353;48.702;8.884;2023-06-22T08:29:43;21.25;;;19.75;;
74821;SDS011;63353;48.702;8.884;2023-06-22T08:32:10;21.95;;;20.45;;
74821;SDS011;63353;48.702;8.884;2023-06-22T08:34:36;21.77;;;20.17;;
74821;SDS011;63353;48.702;8.884;2023-06-22T08:37:07;22.85;;;21.15;;
74821;SDS011;63353;48.702;8.884;2023-06-22T08:39:35;22.25;;;20.40;;
74821;SDS011;63353;48.702;8.884;2023-06-22T08:42:02;20.02;;;18.63;;
74821;SDS011;63353;48.702;8.884;2023-06-22T08:44:27;19.80;;;18.40;;
74821;SDS011;63353;48.702;8.884;2023-06-22T08:46:53;19.25;;;17.95;;
74821;SDS011;63353;48.702;8.884;2023-06-22T08:49:19;18.88;;;17.48;;
74821;SDS011;63353;48.702;8.884;2023-06-22T08:51:45;15.60;;;14.30;;
74821;SDS011;63353;48.702;8.884;2023-06-22T08:54:12;16.02;;;14.60;;
74821;SDS011;63353;48.702;8.884;2023-06-22T08:56:38;17.25;;;15.93;;
74821;SDS011;63353;48.702;8.884;2023-06-22T08:59:04;18.20;;;16.77;;
74821;SDS011;63353;48.702;8.884;2023-06-22T09:01:32;28.90;;;27.05;;
74821;SDS011;63353;48.702;8.884;2023-06-22T09:03:58;27.05;;;25.35;;
74821;SDS011;63353;48.702;8.884;2023-06-22T09:06:24;27.30;;;25.42;;
74821;SDS011;63353;48.702;8.884;2023-06-22T09:08:51;23.95;;;22.08;;
74821;SDS011;63353;48.702;8.884;2023-06-22T09:11:16;27.98;;;26.15;;
74821;SDS011;63353;48.702;8.884;2023-06-22T09:13:45;27.63;;;25.90;;
74821;SDS011;63353;48.702;8.884;2023-06-22T09:16:11;25.30;;;23.20;;
74821;SDS011;63353;48.702;8.884;2023-06-22T09:18:37;23.33;;;21.42;;
74821;SDS011;63353;48.702;8.884;2023-06-22T09:21:02;21.42;;;19.60;;
74821;SDS011;63353;48.702;8.884;2023-06-22T09:23:28;16.65;;;15.25;;
74821;SDS011;63353;48.702;8.884;2023-06-22T09:25:54;17.95;;;16.40;;
74821;SDS011;63353;48.702;8.884;2023-06-22T09:28:20;16.17;;;14.65;;
74821;SDS011;63353;48.702;8.884;2023-06-22T09:30:45;16.55;;;15.15;;
74821;SDS011;63353;48.702;8.884;2023-06-22T09:33:11;15.32;;;14.00;;
74821;SDS011;63353;48.702;8.884;2023-06-22T09:35:36;17.80;;;16.20;;
74821;SDS011;63353;48.702;8.884;2023-06-22T09:38:02;19.50;;;17.88;;
74821;SDS011;63353;48.702;8.884;2023-06-22T09:40:28;19.00;;;17.77;;
74821;SDS011;63353;48.702;8.884;2023-06-22T09:42:53;20.35;;;18.25;;
74821;SDS011;63353;48.702;8.884;2023-06-22T09:45:19;18.23;;;16.92;;
74821;SDS011;63353;48.702;8.884;2023-06-22T09:47:45;20.35;;;18.85;;
74821;SDS011;63353;48.702;8.884;2023-06-22T09:50:11;20.58;;;19.08;;
74821;SDS011;63353;48.702;8.884;2023-06-22T09:52:37;21.40;;;19.55;;
74821;SDS011;63353;48.702;8.884;2023-06-22T09:55:05;20.73;;;19.05;;
74821;SDS011;63353;48.702;8.884;2023-06-22T09:57:31;17.35;;;15.85;;
74821;SDS011;63353;48.702;8.884;2023-06-22T09:59:58;20.48;;;18.77;;
74821;SDS011;63353;48.702;8.884;2023-06-22T10:02:23;18.30;;;16.58;;
74821;SDS011;63353;48.702;8.884;2023-06-22T10:04:49;21.27;;;19.65;;
74821;SDS011;63353;48.702;8.884;2023-06-22T10:07:14;20.13;;;18.50;;
74821;SDS011;63353;48.702;8.884;2023-06-22T10:09:40;15.50;;;14.20;;
74821;SDS011;63353;48.702;8.884;2023-06-22T10:12:06;19.85;;;18.45;;
74821;SDS011;63353;48.702;8.884;2023-06-22T10:14:32;17.75;;;16.15;;
74821;SDS011;63353;48.702;8.884;2023-06-22T10:16:57;16.33;;;14.77;;
74821;SDS011;63353;48.702;8.884;2023-06-22T10:19:23;17.40;;;15.85;;
74821;SDS011;63353;48.702;8.884;2023-06-22T10:21:49;20.10;;;18.70;;
74821;SDS011;63353;48.702;8.884;2023-06-22T10:24:14;22.00;;;20.23;;
74821;SDS011;63353;48.702;8.884;2023-06-22T10:26:40;22.55;;;20.90;;
74821;SDS011;63353;48.702;8.884;2023-06-22T10:29:06;25.27;;;23.08;;
74821;SDS011;63353;48.702;8.884;2023-06-22T10:31:31;24.38;;;22.60;;
74821;SDS011;63353;48.702;8.884;2023-06-22T10:33:57;22.05;;;20.48;;
74821;SDS011;63353;48.702;8.884;2023-06-22T10:36:23;22.50;;;21.05;;
74821;SDS011;63353;48.702;8.884;2023-06-22T10:38:48;25.58;;;23.98;;
74821;SDS011;63353;48.702;8.884;2023-06-22T10:41:14;25.35;;;23.35;;
74821;SDS011;63353;48.702;8.884;2023-06-22T10:43:41;26.35;;;24.45;;
74821;SDS011;63353;48.702;8.884;2023-06-22T10:46:07;24.95;;;23.35;;
74821;SDS011;63353;48.702;8.884;2023-06-22T10:48:33;22.15;;;20.35;;
74821;SDS011;63353;48.702;8.884;2023-06-22T10:50:58;21.52;;;19.90;;
74821;SDS011;63353;48.702;8.884;2023-06-22T10:53:24;22.33;;;20.63;;
74821;SDS011;63353;48.702;8.884;2023-06-22T10:55:50;22.77;;;21.05;;
74821;SDS011;63353;48.702;8.884;2023-06-22T10:58:17;20.15;;;18.65;;
74821;SDS011;63353;48.702;8.884;2023-06-22T11:00:44;21.85;;;20.40;;
74821;SDS011;63353;48.702;8.884;2023-06-22T11:03:10;20.25;;;18.63;;
74821;SDS011;63353;48.702;8.884;2023-06-22T11:05:35;21.65;;;19.90;;
74821;SDS011;63353;48.702;8.884;2023-06-22T11:08:01;22.35;;;20.67;;
74821;SDS011;63353;48.702;8.884;2023-06-22T11:10:27;23.73;;;21.83;;
74821;SDS011;63353;48.702;8.884;2023-06-22T11:13:01;20.60;;;19.10;;
74821;SDS011;63353;48.702;8.884;2023-06-22T11:15:29;22.50;;;20.98;;
74821;SDS011;63353;48.702;8.884;2023-06-22T11:17:54;25.23;;;23.58;;
74821;SDS011;63353;48.702;8.884;2023-06-22T11:20:20;26.08;;;24.30;;
74821;SDS011;63353;48.702;8.884;2023-06-22T11:22:46;24.45;;;22.55;;
74821;SDS011;63353;48.702;8.884;2023-06-22T11:25:12;23.55;;;22.00;;
74821;SDS011;63353;48.702;8.884;2023-06-22T11:27:37;24.27;;;22.35;;
74821;SDS011;63353;48.702;8.884;2023-06-22T11:30:03;23.40;;;21.50;;
74821;SDS011;63353;48.702;8.884;2023-06-22T11:32:29;25.23;;;22.92;;
74821;SDS011;63353;48.702;8.884;2023-06-22T11:34:55;22.77;;;20.98;;
74821;SDS011;63353;48.702;8.884;2023-06-22T11:37:21;23.80;;;21.90;;
74821;SDS011;63353;48.702;8.884;2023-06-22T11:39:49;23.98;;;21.80;;
74821;SDS011;63353;48.702;8.884;2023-06-22T11:42:24;24.73;;;22.83;;
74821;SDS011;63353;48.702;8.884;2023-06-22T11:44:56;26.05;;;23.92;;
74821;SDS011;63353;48.702;8.884;2023-06-22T11:47:22;26.65;;;24.65;;
74821;SDS011;63353;48.702;8.884;2023-06-22T11:49:47;24.98;;;23.05;;
74821;SDS011;63353;48.702;8.884;2023-06-22T11:52:13;25.48;;;23.60;;
74821;SDS011;63353;48.702;8.884;2023-06-22T11:54:39;28.60;;;26.58;;
74821;SDS011;63353;48.702;8.884;2023-06-22T11:57:04;41.35;;;38.72;;
74821;SDS011;63353;48.702;8.884;2023-06-22T11:59:30;53.22;;;50.58;;
74821;SDS011;63353;48.702;8.884;2023-06-22T12:01:56;42.92;;;40.40;;
74821;SDS011;63353;48.702;8.884;2023-06-22T12:04:23;46.92;;;44.40;;
74821;SDS011;63353;48.702;8.884;2023-06-22T12:06:49;51.20;;;48.42;;
74821;SDS011;63353;48.702;8.884;2023-06-22T12:09:14;44.97;;;42.38;;
74821;SDS011;63353;48.702;8.884;2023-06-22T12:11:40;43.88;;;41.35;;
74821;SDS011;63353;48.702;8.884;2023-06-22T12:14:06;45.05;;;42.55;;
74821;SDS011;63353;48.702;8.884;2023-06-22T12:16:31;39.80;;;37.33;;
74821;SDS011;63353;48.702;8.884;2023-06-22T12:18:57;32.10;;;29.35;;
74821;SDS011;63353;48.702;8.884;2023-06-22T12:21:23;43.08;;;40.63;;
74821;SDS011;63353;48.702;8.884;2023-06-22T12:23:48;35.80;;;33.58;;
74821;SDS011;63353;48.702;8.884;2023-06-22T12:26:14;39.22;;;36.78;;
74821;SDS011;63353;48.702;8.884;2023-06-22T12:28:40;43.20;;;40.78;;
74821;SDS011;63353;48.702;8.884;2023-06-22T12:31:06;41.45;;;38.92;;
74821;SDS011;63353;48.702;8.884;2023-06-22T12:33:32;37.85;;;35.55;;
74821;SDS011;63353;48.702;8.884;2023-06-22T12:35:57;38.58;;;36.28;;
74821;SDS011;63353;48.702;8.884;2023-06-22T12:38:23;38.90;;;36.42;;
74821;SDS011;63353;48.702;8.884;2023-06-22T12:40:52;40.40;;;38.20;;
74821;SDS011;63353;48.702;8.884;2023-06-22T12:43:17;42.13;;;39.42;;
74821;SDS011;63353;48.702;8.884;2023-06-22T12:45:43;43.15;;;40.53;;
74821;SDS011;63353;48.702;8.884;2023-06-22T12:48:09;37.60;;;35.00;;
74821;SDS011;63353;48.702;8.884;2023-06-22T12:50:34;36.85;;;34.55;;
74821;SDS011;63353;48.702;8.884;2023-06-22T12:53:00;27.77;;;26.10;;
74821;SDS011;63353;48.702;8.884;2023-06-22T12:55:28;25.45;;;23.63;;
74821;SDS011;63353;48.702;8.884;2023-06-22T12:57:53;25.75;;;23.45;;
74821;SDS011;63353;48.702;8.884;2023-06-22T13:00:19;29.33;;;17.85;;
74821;SDS011;63353;48.702;8.884;2023-06-22T13:02:45;20.58;;;18.95;;
74821;SDS011;63353;48.702;8.884;2023-06-22T13:05:10;19.55;;;17.98;;
74821;SDS011;63353;48.702;8.884;2023-06-22T13:07:36;18.15;;;16.38;;
74821;SDS011;63353;48.702;8.884;2023-06-22T13:10:02;16.20;;;14.50;;
74821;SDS011;63353;48.702;8.884;2023-06-22T13:12:28;16.98;;;13.52;;
74821;SDS011;63353;48.702;8.884;2023-06-22T13:14:54;17.20;;;15.80;;
74821;SDS011;63353;48.702;8.884;2023-06-22T13:17:20;18.08;;;16.42;;
74821;SDS011;63353;48.702;8.884;2023-06-22T13:19:46;18.77;;;17.20;;
74821;SDS011;63353;48.702;8.884;2023-06-22T13:22:25;16.63;;;12.13;;
74821;SDS011;63353;48.702;8.884;2023-06-22T13:24:53;13.60;;;12.30;;
74821;SDS011;63353;48.702;8.884;2023-06-22T13:27:18;18.25;;;16.70;;
74821;SDS011;63353;48.702;8.884;2023-06-22T13:29:44;16.63;;;15.25;;
74821;SDS011;63353;48.702;8.884;2023-06-22T13:32:09;18.25;;;16.65;;
74821;SDS011;63353;48.702;8.884;2023-06-22T13:34:35;20.23;;;18.45;;
74821;SDS011;63353;48.702;8.884;2023-06-22T13:37:01;20.92;;;19.38;;
74821;SDS011;63353;48.702;8.884;2023-06-22T13:39:26;26.05;;;24.27;;
74821;SDS011;63353;48.702;8.884;2023-06-22T13:41:52;26.75;;;24.80;;
74821;SDS011;63353;48.702;8.884;2023-06-22T13:44:17;27.63;;;25.83;;
74821;SDS011;63353;48.702;8.884;2023-06-22T13:46:43;22.20;;;20.70;;
74821;SDS011;63353;48.702;8.884;2023-06-22T13:49:09;24.75;;;22.58;;
74821;SDS011;63353;48.702;8.884;2023-06-22T13:51:35;23.00;;;21.25;;
74821;SDS011;63353;48.702;8.884;2023-06-22T13:54:01;21.75;;;20.13;;
74821;SDS011;63353;48.702;8.884;2023-06-22T13:56:27;20.27;;;18.48;;
74821;SDS011;63353;48.702;8.884;2023-06-22T13:58:52;18.27;;;16.70;;
74821;SDS011;63353;48.702;8.884;2023-06-22T14:01:18;19.60;;;17.52;;
74821;SDS011;63353;48.702;8.884;2023-06-22T14:03:44;22.95;;;21.35;;
74821;SDS011;63353;48.702;8.884;2023-06-22T14:06:11;26.15;;;24.33;;
74821;SDS011;63353;48.702;8.884;2023-06-22T14:08:37;20.20;;;18.70;;
74821;SDS011;63353;48.702;8.884;2023-06-22T14:11:03;14.00;;;12.90;;
74821;SDS011;63353;48.702;8.884;2023-06-22T14:13:29;13.80;;;12.55;;
74821;SDS011;63353;48.702;8.884;2023-06-22T14:15:55;14.90;;;13.38;;
74821;SDS011;63353;48.702;8.884;2023-06-22T14:18:20;15.43;;;13.32;;
74821;SDS011;63353;48.702;8.884;2023-06-22T14:20:47;12.05;;;9.75;;
74821;SDS011;63353;48.702;8.884;2023-06-22T14:23:13;11.68;;;8.18;;
74821;SDS011;63353;48.702;8.884;2023-06-22T14:25:39;10.57;;;8.50;;
74821;SDS011;63353;48.702;8.884;2023-06-22T14:28:05;9.15;;;8.27;;
74821;SDS011;63353;48.702;8.884;2023-06-22T14:30:31;9.43;;;7.72;;